sensor_id;sensor_type;location;lat;lon;timestamp;pressure;altitude;pressure_sealevel;temperature;humidity
38558;BME280;24333;42.626;23.308;2023-05-25T00:22:58;69775.91;;;-148.95;100.00
38558;BME280;24333;42.626;23.308;2023-05-25T00:25:26;69773.81;;;-148.95;100.00
38558;BME280;24333;42.626;23.308;2023-05-25T00:27:52;69784.19;;;-148.95;100.00
38558;BME280;24333;42.626;23.308;2023-05-25T00:30:17;69794.56;;;-148.95;100.00
38558;BME280;24333;42.626;23.308;2023-05-25T00:33:07;69796.63;;;-148.95;100.00
38558;BME280;24333;42.626;23.308;2023-05-25T00:35:36;69802.88;;;-148.95;100.00
38558;BME280;24333;42.626;23.308;2023-05-25T00:38:17;69807.00;;;-148.95;100.00
38558;BME280;24333;42.626;23.308;2023-05-25T00:40:45;69819.47;;;-148.95;100.00
38558;BME280;24333;42.626;23.308;2023-05-25T07:36:39;69302.97;;;-148.95;74.46
38558;BME280;24333;42.626;23.308;2023-05-25T07:39:09;69276.00;;;-148.95;74.38
38558;BME280;24333;42.626;23.308;2023-05-25T07:41:40;69236.59;;;-148.95;73.95
38558;BME280;24333;42.626;23.308;2023-05-25T07:44:05;69201.34;;;-148.95;70.47
38558;BME280;24333;42.626;23.308;2023-05-25T07:46:31;69166.09;;;-148.95;67.88
38558;BME280;24333;42.626;23.308;2023-05-25T08:09:31;69309.19;;;-148.95;65.88
38558;BME280;24333;42.626;23.308;2023-05-25T08:12:12;69346.53;;;-148.95;68.36
38558;BME280;24333;42.626;23.308;2023-05-25T08:14:38;69373.50;;;-148.95;67.17
38558;BME280;24333;42.626;23.308;2023-05-25T08:17:03;69390.09;;;-148.95;69.36
38558;BME280;24333;42.626;23.308;2023-05-25T08:19:30;69421.19;;;-148.95;71.42
38558;BME280;24333;42.626;23.308;2023-05-25T08:21:57;69462.69;;;-148.95;76.22
38558;BME280;24333;42.626;23.308;2023-05-25T09:05:46;69759.31;;;-148.95;100.00
38558;BME280;24333;42.626;23.308;2023-05-25T09:08:12;69763.44;;;-148.95;100.00
38558;BME280;24333;42.626;23.308;2023-05-25T09:10:38;69777.97;;;-148.95;100.00
38558;BME280;24333;42.626;23.308;2023-05-25T09:13:04;69786.28;;;-148.95;100.00
38558;BME280;24333;42.626;23.308;2023-05-25T09:16:01;69794.56;;;-148.95;100.00
38558;BME280;24333;42.626;23.308;2023-05-25T09:18:58;69815.31;;;-148.95;100.00
38558;BME280;24333;42.626;23.308;2023-05-25T09:21:24;69813.22;;;-148.95;100.00
38558;BME280;24333;42.626;23.308;2023-05-25T09:23:50;69807.00;;;-148.95;100.00
38558;BME280;24333;42.626;23.308;2023-05-25T09:26:16;69825.69;;;-148.95;100.00
38558;BME280;24333;42.626;23.308;2023-05-25T09:28:45;69827.75;;;-148.95;100.00
38558;BME280;24333;42.626;23.308;2023-05-25T09:31:12;69829.84;;;-148.95;100.00
38558;BME280;24333;42.626;23.308;2023-05-25T09:33:38;69829.84;;;-148.95;100.00
38558;BME280;24333;42.626;23.308;2023-05-25T09:36:05;69825.69;;;-148.95;100.00
38558;BME280;24333;42.626;23.308;2023-05-25T09:38:31;69809.09;;;-148.95;100.00
38558;BME280;24333;42.626;23.308;2023-05-25T09:40:57;69804.94;;;-148.95;100.00
38558;BME280;24333;42.626;23.308;2023-05-25T09:43:23;69798.72;;;-148.95;100.00
38558;BME280;24333;42.626;23.308;2023-05-25T09:45:51;69777.97;;;-148.95;100.00
38558;BME280;24333;42.626;23.308;2023-05-25T09:48:17;69765.53;;;-148.95;100.00
38558;BME280;24333;42.626;23.308;2023-05-25T09:50:45;69744.78;;;-148.95;100.00
38558;BME280;24333;42.626;23.308;2023-05-25T09:53:11;69711.59;;;-148.95;100.00
38558;BME280;24333;42.626;23.308;2023-05-25T09:55:36;69686.69;;;-148.95;100.00
38558;BME280;24333;42.626;23.308;2023-05-25T09:58:02;69655.59;;;-148.95;100.00
38558;BME280;24333;42.626;23.308;2023-05-25T10:00:28;69628.63;;;-148.95;100.00
38558;BME280;24333;42.626;23.308;2023-05-25T10:02:54;69595.44;;;-148.95;100.00
38558;BME280;24333;42.626;23.308;2023-05-25T10:05:21;69562.25;;;-148.95;100.00
38558;BME280;24333;42.626;23.308;2023-05-25T10:07:48;69545.66;;;-148.95;100.00
38558;BME280;24333;42.626;23.308;2023-05-25T10:10:19;69553.94;;;-148.95;100.00
38558;BME280;24333;42.626;23.308;2023-05-25T10:12:54;69545.66;;;-148.95;100.00
38558;BME280;24333;42.626;23.308;2023-05-25T10:15:20;69516.59;;;-148.95;100.00
38558;BME280;24333;42.626;23.308;2023-05-25T10:18:34;69491.72;;;-148.95;100.00
38558;BME280;24333;42.626;23.308;2023-05-25T10:21:02;69464.75;;;-148.95;100.00
38558;BME280;24333;42.626;23.308;2023-05-25T10:23:49;69446.09;;;-148.95;100.00
38558;BME280;24333;42.626;23.308;2023-05-25T10:26:28;69431.56;;;-148.95;98.54
38558;BME280;24333;42.626;23.308;2023-05-25T10:29:34;69385.94;;;-148.95;90.95
38558;BME280;24333;42.626;23.308;2023-05-25T11:52:42;69412.91;;;-148.95;99.66
38558;BME280;24333;42.626;23.308;2023-05-25T13:09:11;69242.81;;;-148.95;63.06
38558;BME280;24333;42.626;23.308;2023-05-25T15:21:54;68979.44;;;-148.95;40.89
38558;BME280;24333;42.626;23.308;2023-05-25T15:24:20;68977.34;;;-148.95;41.75
38558;BME280;24333;42.626;23.308;2023-05-25T15:26:45;68964.91;;;-148.95;40.35
38558;BME280;24333;42.626;23.308;2023-05-25T15:29:36;68940.03;;;-148.95;41.88
38558;BME280;24333;42.626;23.308;2023-05-25T15:32:04;68923.44;;;-148.95;45.05
38558;BME280;24333;42.626;23.308;2023-05-25T15:34:31;68896.47;;;-148.95;46.67
38558;BME280;24333;42.626;23.308;2023-05-25T15:36:57;68904.75;;;-148.95;47.30
38558;BME280;24333;42.626;23.308;2023-05-25T15:46:06;68906.84;;;-148.95;47.83
38558;BME280;24333;42.626;23.308;2023-05-25T15:48:32;68904.75;;;-148.95;48.37
38558;BME280;24333;42.626;23.308;2023-05-25T15:50:57;68807.28;;;-148.95;46.61
38558;BME280;24333;42.626;23.308;2023-05-25T15:53:22;68747.16;;;-148.95;44.76
38558;BME280;24333;42.626;23.308;2023-05-25T15:55:48;68796.94;;;-148.95;45.13
38558;BME280;24333;42.626;23.308;2023-05-25T15:58:13;68836.34;;;-148.95;46.06
38558;BME280;24333;42.626;23.308;2023-05-25T16:00:39;68881.97;;;-148.95;47.88
38558;BME280;24333;42.626;23.308;2023-05-25T16:03:05;68904.75;;;-148.95;48.73
38558;BME280;24333;42.626;23.308;2023-05-25T16:05:30;68933.81;;;-148.95;50.35
38558;BME280;24333;42.626;23.308;2023-05-25T16:08:05;68998.09;;;-148.95;54.42
38558;BME280;24333;42.626;23.308;2023-05-25T16:10:31;69029.19;;;-148.95;59.79
38558;BME280;24333;42.626;23.308;2023-05-25T16:12:56;69031.28;;;-148.95;61.32
38558;BME280;24333;42.626;23.308;2023-05-25T16:15:22;69052.00;;;-148.95;64.95
38558;BME280;24333;42.626;23.308;2023-05-25T16:17:47;69103.88;;;-148.95;66.79
38558;BME280;24333;42.626;23.308;2023-05-25T16:20:21;69134.97;;;-148.95;74.77
38558;BME280;24333;42.626;23.308;2023-05-25T16:23:07;69184.75;;;-148.95;83.57
38558;BME280;24333;42.626;23.308;2023-05-25T16:25:33;69207.56;;;-148.95;85.71
38558;BME280;24333;42.626;23.308;2023-05-25T16:27:59;69222.09;;;-148.95;86.26
38558;BME280;24333;42.626;23.308;2023-05-25T16:30:24;69238.69;;;-148.95;88.37
38558;BME280;24333;42.626;23.308;2023-05-25T16:33:01;69251.13;;;-148.95;88.85
38558;BME280;24333;42.626;23.308;2023-05-25T16:35:39;69261.50;;;-148.95;90.30
38558;BME280;24333;42.626;23.308;2023-05-25T16:38:27;69278.09;;;-148.95;89.32
38558;BME280;24333;42.626;23.308;2023-05-25T16:43:39;69300.91;;;-148.95;88.00
38558;BME280;24333;42.626;23.308;2023-05-25T16:46:07;69317.50;;;-148.95;89.48
38558;BME280;24333;42.626;23.308;2023-05-25T16:48:40;69327.84;;;-148.95;89.49
38558;BME280;24333;42.626;23.308;2023-05-25T16:51:51;69354.81;;;-148.95;89.69
38558;BME280;24333;42.626;23.308;2023-05-25T16:54:24;69379.72;;;-148.95;91.49
38558;BME280;24333;42.626;23.308;2023-05-25T16:56:56;69462.69;;;-148.95;100.00
38558;BME280;24333;42.626;23.308;2023-05-25T16:59:29;69468.91;;;-148.95;100.00
38558;BME280;24333;42.626;23.308;2023-05-25T17:02:00;69489.66;;;-148.95;100.00
38558;BME280;24333;42.626;23.308;2023-05-25T17:04:25;69502.09;;;-148.95;100.00
38558;BME280;24333;42.626;23.308;2023-05-25T17:06:51;69504.16;;;-148.95;100.00
38558;BME280;24333;42.626;23.308;2023-05-25T17:09:17;69514.53;;;-148.95;100.00
38558;BME280;24333;42.626;23.308;2023-05-25T17:11:44;69516.59;;;-148.95;100.00
38558;BME280;24333;42.626;23.308;2023-05-25T17:14:24;69520.75;;;-148.95;100.00
38558;BME280;24333;42.626;23.308;2023-05-25T17:17:02;69531.13;;;-148.95;100.00
38558;BME280;24333;42.626;23.308;2023-05-25T17:19:40;69529.06;;;-148.95;100.00
38558;BME280;24333;42.626;23.308;2023-05-25T17:22:13;69549.78;;;-148.95;100.00
38558;BME280;24333;42.626;23.308;2023-05-25T17:24:39;69562.25;;;-148.95;100.00
38558;BME280;24333;42.626;23.308;2023-05-25T17:27:05;69574.69;;;-148.95;100.00
38558;BME280;24333;42.626;23.308;2023-05-25T17:29:30;69591.28;;;-148.95;100.00
38558;BME280;24333;42.626;23.308;2023-05-25T17:32:04;69612.03;;;-148.95;100.00
38558;BME280;24333;42.626;23.308;2023-05-25T17:34:29;69624.47;;;-148.95;100.00
38558;BME280;24333;42.626;23.308;2023-05-25T17:36:55;69645.22;;;-148.95;100.00
38558;BME280;24333;42.626;23.308;2023-05-25T17:39:20;69670.09;;;-148.95;100.00
38558;BME280;24333;42.626;23.308;2023-05-25T17:41:46;69686.69;;;-148.95;100.00
38558;BME280;24333;42.626;23.308;2023-05-25T17:44:13;69686.69;;;-148.95;100.00
38558;BME280;24333;42.626;23.308;2023-05-25T17:46:39;69695.00;;;-148.95;100.00
38558;BME280;24333;42.626;23.308;2023-05-25T17:49:05;69699.16;;;-148.95;100.00
38558;BME280;24333;42.626;23.308;2023-05-25T17:51:30;69705.38;;;-148.95;100.00
38558;BME280;24333;42.626;23.308;2023-05-25T17:53:56;69707.44;;;-148.95;100.00
38558;BME280;24333;42.626;23.308;2023-05-25T17:56:22;69707.44;;;-148.95;100.00
38558;BME280;24333;42.626;23.308;2023-05-25T17:58:49;69699.16;;;-148.95;100.00
38558;BME280;24333;42.626;23.308;2023-05-25T18:01:15;69699.16;;;-148.95;100.00
38558;BME280;24333;42.626;23.308;2023-05-25T18:03:41;69699.16;;;-148.95;100.00
38558;BME280;24333;42.626;23.308;2023-05-25T18:06:07;69707.44;;;-148.95;100.00
38558;BME280;24333;42.626;23.308;2023-05-25T18:08:32;69724.03;;;-148.95;100.00
38558;BME280;24333;42.626;23.308;2023-05-25T18:10:58;69732.34;;;-148.95;100.00
38558;BME280;24333;42.626;23.308;2023-05-25T18:13:24;69744.78;;;-148.95;100.00
38558;BME280;24333;42.626;23.308;2023-05-25T18:15:51;69744.78;;;-148.95;100.00
38558;BME280;24333;42.626;23.308;2023-05-25T18:18:17;69753.06;;;-148.95;100.00
38558;BME280;24333;42.626;23.308;2023-05-25T18:20:45;69753.06;;;-148.95;100.00
38558;BME280;24333;42.626;23.308;2023-05-25T18:23:11;69765.53;;;-148.95;100.00
38558;BME280;24333;42.626;23.308;2023-05-25T18:25:38;69769.69;;;-148.95;100.00
38558;BME280;24333;42.626;23.308;2023-05-25T18:28:03;69769.69;;;-148.95;100.00
38558;BME280;24333;42.626;23.308;2023-05-25T18:30:29;69769.69;;;-148.95;100.00
38558;BME280;24333;42.626;23.308;2023-05-25T18:32:58;69773.81;;;-148.95;100.00
38558;BME280;24333;42.626;23.308;2023-05-25T18:35:24;69775.91;;;-148.95;100.00
38558;BME280;24333;42.626;23.308;2023-05-25T18:37:49;69780.03;;;-148.95;100.00
38558;BME280;24333;42.626;23.308;2023-05-25T18:40:15;69782.13;;;-148.95;100.00
38558;BME280;24333;42.626;23.308;2023-05-25T18:42:41;69780.03;;;-148.95;100.00
38558;BME280;24333;42.626;23.308;2023-05-25T19:13:42;69852.66;;;-148.95;100.00
38558;BME280;24333;42.626;23.308;2023-05-25T19:16:10;69860.94;;;-148.95;100.00
38558;BME280;24333;42.626;23.308;2023-05-25T19:19:02;69867.16;;;-148.95;100.00
38558;BME280;24333;42.626;23.308;2023-05-25T19:21:41;69875.47;;;-148.95;100.00
38558;BME280;24333;42.626;23.308;2023-05-25T19:24:11;69883.75;;;-148.95;100.00
38558;BME280;24333;42.626;23.308;2023-05-25T19:29:12;69894.13;;;-148.95;100.00
38558;BME280;24333;42.626;23.308;2023-05-25T19:31:41;69902.44;;;-148.95;100.00
38558;BME280;24333;42.626;23.308;2023-05-25T19:34:07;69910.72;;;-148.95;100.00
38558;BME280;24333;42.626;23.308;2023-05-25T19:36:33;69919.03;;;-148.95;100.00
38558;BME280;24333;42.626;23.308;2023-05-25T19:38:58;69939.78;;;-148.95;100.00
38558;BME280;24333;42.626;23.308;2023-05-25T19:41:24;69929.41;;;-148.95;100.00
38558;BME280;24333;42.626;23.308;2023-05-25T19:43:50;69929.41;;;-148.95;100.00
38558;BME280;24333;42.626;23.308;2023-05-25T19:46:15;69935.63;;;-148.95;100.00
38558;BME280;24333;42.626;23.308;2023-05-25T19:48:41;69939.78;;;-148.95;100.00
38558;BME280;24333;42.626;23.308;2023-05-25T19:51:07;69933.56;;;-148.95;100.00
38558;BME280;24333;42.626;23.308;2023-05-25T19:53:33;69939.78;;;-148.95;100.00
38558;BME280;24333;42.626;23.308;2023-05-25T19:55:59;69935.63;;;-148.95;100.00
38558;BME280;24333;42.626;23.308;2023-05-25T19:58:27;69943.94;;;-148.95;100.00
38558;BME280;24333;42.626;23.308;2023-05-25T20:00:53;69943.94;;;-148.95;100.00
38558;BME280;24333;42.626;23.308;2023-05-25T20:03:21;69948.06;;;-148.95;100.00
38558;BME280;24333;42.626;23.308;2023-05-25T20:05:47;69952.22;;;-148.95;100.00
38558;BME280;24333;42.626;23.308;2023-05-25T20:08:13;69939.78;;;-148.95;100.00
38558;BME280;24333;42.626;23.308;2023-05-25T20:10:39;69950.16;;;-148.95;100.00
38558;BME280;24333;42.626;23.308;2023-05-25T20:13:05;69943.94;;;-148.95;100.00
38558;BME280;24333;42.626;23.308;2023-05-25T20:15:31;69946.00;;;-148.95;100.00
38558;BME280;24333;42.626;23.308;2023-05-25T20:18:01;69956.38;;;-148.95;100.00
38558;BME280;24333;42.626;23.308;2023-05-25T20:20:32;69968.81;;;-148.95;100.00
38558;BME280;24333;42.626;23.308;2023-05-25T20:23:00;69972.97;;;-148.95;100.00
38558;BME280;24333;42.626;23.308;2023-05-25T20:25:32;69993.72;;;-148.95;100.00
38558;BME280;24333;42.626;23.308;2023-05-25T20:30:59;70010.31;;;-148.95;100.00
38558;BME280;24333;42.626;23.308;2023-05-25T20:33:35;70018.59;;;-148.95;100.00
38558;BME280;24333;42.626;23.308;2023-05-25T20:54:06;70004.09;;;-148.95;100.00
38558;BME280;24333;42.626;23.308;2023-05-25T20:56:44;69999.94;;;-148.95;100.00
38558;BME280;24333;42.626;23.308;2023-05-25T20:59:12;70002.00;;;-148.95;100.00
38558;BME280;24333;42.626;23.308;2023-05-25T21:01:38;69993.72;;;-148.95;100.00
38558;BME280;24333;42.626;23.308;2023-05-25T21:04:06;69997.88;;;-148.95;100.00
38558;BME280;24333;42.626;23.308;2023-05-25T21:06:55;70006.16;;;-148.95;100.00
38558;BME280;24333;42.626;23.308;2023-05-25T21:09:36;70016.53;;;-148.95;100.00
38558;BME280;24333;42.626;23.308;2023-05-25T21:12:03;70020.69;;;-148.95;100.00
38558;BME280;24333;42.626;23.308;2023-05-25T21:14:40;70006.16;;;-148.95;100.00
38558;BME280;24333;42.626;23.308;2023-05-25T21:17:09;70002.00;;;-148.95;100.00
38558;BME280;24333;42.626;23.308;2023-05-25T21:19:53;69991.63;;;-148.95;100.00
38558;BME280;24333;42.626;23.308;2023-05-25T21:22:20;69997.88;;;-148.95;100.00
38558;BME280;24333;42.626;23.308;2023-05-25T21:25:12;69985.41;;;-148.95;100.00
38558;BME280;24333;42.626;23.308;2023-05-25T21:27:42;69993.72;;;-148.95;100.00
38558;BME280;24333;42.626;23.308;2023-05-25T21:30:12;69993.72;;;-148.95;100.00
38558;BME280;24333;42.626;23.308;2023-05-25T21:32:38;69989.56;;;-148.95;100.00
38558;BME280;24333;42.626;23.308;2023-05-25T21:35:17;69989.56;;;-148.95;100.00
38558;BME280;24333;42.626;23.308;2023-05-25T21:37:45;69985.41;;;-148.95;100.00
38558;BME280;24333;42.626;23.308;2023-05-25T21:40:13;69993.72;;;-148.95;100.00
38558;BME280;24333;42.626;23.308;2023-05-25T21:42:39;69993.72;;;-148.95;100.00
38558;BME280;24333;42.626;23.308;2023-05-25T21:45:30;70016.53;;;-148.95;100.00
38558;BME280;24333;42.626;23.308;2023-05-25T21:47:55;70014.47;;;-148.95;100.00
38558;BME280;24333;42.626;23.308;2023-05-25T21:50:23;70014.47;;;-148.95;100.00
38558;BME280;24333;42.626;23.308;2023-05-25T21:52:50;70033.13;;;-148.95;100.00
38558;BME280;24333;42.626;23.308;2023-05-25T22:02:14;70035.19;;;-148.95;100.00
38558;BME280;24333;42.626;23.308;2023-05-25T22:04:39;70033.13;;;-148.95;100.00
38558;BME280;24333;42.626;23.308;2023-05-25T22:07:06;70031.06;;;-148.95;100.00
38558;BME280;24333;42.626;23.308;2023-05-25T22:09:35;70031.06;;;-148.95;100.00
38558;BME280;24333;42.626;23.308;2023-05-25T22:12:26;70043.50;;;-148.95;100.00
38558;BME280;24333;42.626;23.308;2023-05-25T22:15:14;70039.34;;;-148.95;100.00
38558;BME280;24333;42.626;23.308;2023-05-25T22:17:39;70039.34;;;-148.95;100.00
38558;BME280;24333;42.626;23.308;2023-05-25T22:20:12;70037.28;;;-148.95;100.00
38558;BME280;24333;42.626;23.308;2023-05-25T22:22:37;70028.97;;;-148.95;100.00
38558;BME280;24333;42.626;23.308;2023-05-25T22:30:15;70020.69;;;-148.95;100.00
38558;BME280;24333;42.626;23.308;2023-05-25T22:32:40;70026.91;;;-148.95;100.00
38558;BME280;24333;42.626;23.308;2023-05-25T22:35:06;70026.91;;;-148.95;100.00
38558;BME280;24333;42.626;23.308;2023-05-25T22:37:32;70031.06;;;-148.95;100.00
38558;BME280;24333;42.626;23.308;2023-05-25T22:39:57;70033.13;;;-148.95;100.00
38558;BME280;24333;42.626;23.308;2023-05-25T22:42:22;70024.84;;;-148.95;100.00
38558;BME280;24333;42.626;23.308;2023-05-25T22:44:48;70020.69;;;-148.95;100.00
38558;BME280;24333;42.626;23.308;2023-05-25T22:47:15;70026.91;;;-148.95;100.00
38558;BME280;24333;42.626;23.308;2023-05-25T22:49:40;70031.06;;;-148.95;100.00
38558;BME280;24333;42.626;23.308;2023-05-25T22:52:06;70026.91;;;-148.95;100.00
38558;BME280;24333;42.626;23.308;2023-05-25T22:54:32;70039.34;;;-148.95;100.00
38558;BME280;24333;42.626;23.308;2023-05-25T22:56:57;70039.34;;;-148.95;100.00
38558;BME280;24333;42.626;23.308;2023-05-25T23:01:58;70035.19;;;-148.95;100.00
38558;BME280;24333;42.626;23.308;2023-05-25T23:04:23;70039.34;;;-148.95;100.00
38558;BME280;24333;42.626;23.308;2023-05-25T23:06:49;70035.19;;;-148.95;100.00
38558;BME280;24333;42.626;23.308;2023-05-25T23:09:14;70033.13;;;-148.95;100.00
38558;BME280;24333;42.626;23.308;2023-05-25T23:11:40;70033.13;;;-148.95;100.00
38558;BME280;24333;42.626;23.308;2023-05-25T23:18:01;70039.34;;;-148.95;100.00
38558;BME280;24333;42.626;23.308;2023-05-25T23:20:27;70037.28;;;-148.95;100.00
38558;BME280;24333;42.626;23.308;2023-05-25T23:22:52;70039.34;;;-148.95;100.00
38558;BME280;24333;42.626;23.308;2023-05-25T23:25:18;70045.56;;;-148.95;100.00
38558;BME280;24333;42.626;23.308;2023-05-25T23:27:43;70041.44;;;-148.95;100.00
38558;BME280;24333;42.626;23.308;2023-05-25T23:30:09;70043.50;;;-148.95;100.00
38558;BME280;24333;42.626;23.308;2023-05-25T23:32:34;70049.72;;;-148.95;100.00
38558;BME280;24333;42.626;23.308;2023-05-25T23:35:00;70064.25;;;-148.95;100.00
38558;BME280;24333;42.626;23.308;2023-05-25T23:37:26;70062.19;;;-148.95;100.00
38558;BME280;24333;42.626;23.308;2023-05-25T23:39:52;70062.19;;;-148.95;100.00
38558;BME280;24333;42.626;23.308;2023-05-25T23:42:17;70064.25;;;-148.95;100.00
38558;BME280;24333;42.626;23.308;2023-05-25T23:44:43;70072.53;;;-148.95;100.00
38558;BME280;24333;42.626;23.308;2023-05-25T23:47:08;70082.91;;;-148.95;100.00
